createdAt,value
2022-11-30T00:05:30.181Z,1.95
2022-11-30T00:09:13.571Z,2.25
2022-11-30T00:11:57.404Z,4.45
2022-11-30T00:21:26.045Z,2.42
2022-11-30T00:23:53.195Z,1.63
2022-11-30T00:26:36.641Z,1.80
2022-11-30T00:29:38.098Z,3.10
2022-11-30T01:44:29.830Z,3.65
2022-11-30T01:46:45.473Z,2.13
2022-11-30T02:18:42.521Z,2.25
2022-11-30T03:29:50.308Z,1.58
2022-11-30T03:32:32.406Z,0.82
2022-11-30T03:37:54.254Z,5.43
2022-11-30T03:47:59.108Z,1.98
2022-11-30T03:50:29.136Z,2.67
2022-11-30T03:56:54.122Z,1.17
2022-11-30T03:59:39.702Z,3.67
2022-11-30T04:02:07.458Z,1.73
2022-11-30T04:09:09.080Z,1.23
2022-11-30T05:08:54.635Z,2.47
2022-11-30T05:11:25.378Z,1.77
2022-11-30T05:14:01.539Z,5.05
2022-11-30T05:17:25.073Z,4.00
2022-11-30T05:19:55.743Z,1.38
2022-11-30T05:22:22.969Z,1.52
2022-11-30T05:25:21.966Z,0.90
2022-11-30T05:28:41.166Z,1.73
2022-11-30T06:42:13.976Z,0.85
2022-11-30T06:48:09.652Z,3.42
2022-11-30T06:53:58.232Z,1.45
2022-11-30T07:08:47.977Z,6.80
2022-11-30T07:15:02.267Z,4.55
2022-11-30T07:18:19.953Z,4.03
2022-11-30T07:20:52.767Z,3.50
2022-11-30T07:27:31.781Z,2.55
2022-11-30T07:37:35.347Z,3.58
2022-11-30T07:40:10.393Z,3.10
2022-11-30T07:42:37.391Z,15.88
2022-11-30T07:45:05.175Z,12.18
2022-11-30T07:47:41.746Z,14.20
2022-11-30T07:50:17.937Z,12.45
2022-11-30T07:52:45.085Z,3.60
2022-11-30T07:55:15.342Z,4.78
2022-11-30T07:57:42.512Z,5.40
2022-11-30T08:00:15.542Z,2.45
2022-11-30T08:02:45.605Z,3.50
2022-11-30T08:05:13.175Z,2.92
2022-11-30T08:08:00.842Z,1.95
2022-11-30T08:10:28.138Z,5.55
2022-11-30T08:12:55.159Z,5.20
2022-11-30T08:15:53.977Z,5.45
2022-11-30T08:18:30.530Z,5.80
2022-11-30T08:21:22.428Z,2.03
2022-11-30T08:23:56.801Z,3.22
2022-11-30T08:26:28.355Z,4.68
2022-11-30T08:28:57.057Z,6.28
2022-11-30T08:31:46.430Z,6.75
2022-11-30T08:38:08.985Z,3.22
2022-11-30T08:48:03.912Z,2.00
2022-11-30T08:51:27.277Z,5.82
2022-11-30T08:54:14.975Z,2.30
2022-11-30T08:56:42.493Z,2.38
2022-11-30T08:59:13.099Z,6.65
2022-11-30T09:01:43.349Z,3.55
2022-11-30T09:04:37.992Z,5.05
2022-11-30T09:07:29.086Z,4.95
2022-11-30T09:09:56.146Z,3.97
2022-11-30T09:12:23.190Z,2.83
2022-11-30T09:14:59.329Z,4.72
2022-11-30T09:18:28.207Z,4.88
2022-11-30T09:28:35.231Z,2.38
2022-11-30T09:31:28.701Z,3.30
2022-11-30T09:34:29.504Z,5.30
2022-11-30T09:36:59.552Z,10.20
2022-11-30T09:47:08.641Z,4.80
2022-11-30T09:49:41.591Z,4.50
2022-11-30T09:52:54.909Z,4.82
2022-11-30T09:57:47.558Z,2.95
2022-11-30T10:00:05.093Z,7.30
2022-11-30T10:11:10.418Z,10.20
2022-11-30T10:17:51.757Z,7.60
2022-11-30T10:36:05.911Z,3.33
2022-11-30T10:38:41.002Z,4.43
2022-11-30T10:41:16.837Z,7.65
2022-11-30T10:44:23.137Z,4.95
2022-11-30T10:47:08.240Z,5.63
2022-11-30T10:49:41.032Z,6.05
2022-11-30T10:54:13.918Z,12.82
2022-11-30T10:59:36.531Z,10.00
2022-11-30T11:02:58.942Z,7.28
2022-11-30T11:05:38.295Z,4.72
2022-11-30T11:08:24.778Z,6.13
2022-11-30T11:10:51.967Z,5.40
2022-11-30T11:13:35.521Z,10.88
2022-11-30T11:16:11.572Z,4.68
2022-11-30T11:19:24.237Z,5.18
2022-11-30T11:22:46.850Z,3.90
2022-11-30T11:25:25.144Z,3.17
2022-11-30T11:27:54.364Z,5.55
2022-11-30T11:30:27.250Z,6.00
2022-11-30T11:33:01.969Z,5.88
2022-11-30T11:35:38.956Z,5.00
2022-11-30T11:38:27.202Z,11.73
2022-11-30T11:44:34.345Z,11.77
2022-11-30T11:47:29.635Z,6.53
2022-11-30T11:51:04.864Z,9.40
2022-11-30T11:53:39.391Z,11.23
2022-11-30T11:56:36.653Z,7.85
2022-11-30T12:02:52.588Z,3.33
2022-11-30T12:05:58.753Z,4.25
2022-11-30T12:08:37.012Z,4.63
2022-11-30T12:12:02.929Z,3.63
2022-11-30T12:14:33.211Z,11.75
2022-11-30T12:17:30.253Z,4.15
2022-11-30T12:20:41.410Z,2.90
2022-11-30T12:23:32.878Z,4.97
2022-11-30T12:26:31.507Z,4.72
2022-11-30T12:29:23.391Z,4.57
2022-11-30T12:32:23.034Z,4.43
2022-11-30T12:35:14.938Z,9.88
2022-11-30T12:38:19.682Z,5.43
2022-11-30T12:41:24.467Z,4.22
2022-11-30T12:44:29.050Z,6.65
2022-11-30T12:47:21.187Z,5.00
2022-11-30T12:50:21.401Z,4.70
2022-11-30T12:53:19.080Z,3.00
2022-11-30T12:56:52.283Z,3.80
2022-11-30T12:59:44.586Z,11.63
2022-11-30T13:02:59.205Z,12.52
2022-11-30T13:06:13.250Z,3.70
2022-11-30T13:08:51.362Z,5.53
2022-11-30T13:11:34.766Z,9.32
2022-11-30T13:14:02.542Z,7.13
2022-11-30T13:20:29.339Z,7.80
2022-11-30T13:23:17.205Z,9.13
2022-11-30T13:26:09.621Z,10.82
2022-11-30T13:28:45.043Z,9.93
2022-11-30T13:31:34.285Z,18.45
2022-11-30T13:34:01.356Z,6.35
2022-11-30T13:36:40.826Z,10.50
2022-11-30T13:39:29.395Z,6.80
2022-11-30T13:42:02.239Z,7.47
2022-11-30T13:44:37.885Z,12.50
2022-11-30T13:47:32.098Z,8.60
2022-11-30T13:50:19.418Z,7.53
2022-11-30T13:52:58.799Z,10.85
2022-11-30T13:55:53.090Z,12.23
2022-11-30T13:58:21.409Z,11.10
2022-11-30T14:01:05.609Z,12.48
2022-11-30T14:03:33.308Z,10.50
2022-11-30T14:06:22.251Z,9.52
2022-11-30T14:08:51.495Z,6.75
2022-11-30T14:11:43.295Z,12.32
2022-11-30T14:14:46.324Z,10.65
2022-11-30T14:17:24.188Z,6.20
2022-11-30T14:19:54.165Z,3.75
2022-11-30T14:22:21.977Z,5.95
2022-11-30T14:24:50.625Z,4.35
2022-11-30T14:27:25.801Z,5.55
2022-11-30T14:29:56.117Z,4.50
2022-11-30T14:32:38.290Z,7.32
2022-11-30T14:35:13.838Z,5.75
2022-11-30T14:37:51.549Z,5.67
2022-11-30T14:40:20.243Z,6.72
2022-11-30T14:42:50.799Z,6.25
2022-11-30T14:45:25.464Z,9.70
2022-11-30T14:48:14.287Z,15.15
2022-11-30T14:50:51.065Z,10.20
2022-11-30T14:53:46.966Z,8.65
2022-11-30T14:56:35.727Z,6.05
2022-11-30T14:59:27.364Z,8.82
2022-11-30T15:02:03.946Z,10.15
2022-11-30T15:04:31.795Z,12.48
2022-11-30T15:06:59.464Z,13.20
2022-11-30T15:09:30.809Z,10.35
2022-11-30T15:11:58.518Z,10.02
2022-11-30T15:14:25.598Z,8.18
2022-11-30T15:16:55.478Z,5.10
2022-11-30T15:19:28.669Z,7.43
2022-11-30T15:21:57.074Z,7.43
2022-11-30T15:24:25.463Z,19.23
2022-11-30T15:26:56.981Z,8.55
2022-11-30T15:29:53.108Z,11.57
2022-11-30T15:32:23.948Z,5.28
2022-11-30T15:34:56.607Z,11.77
2022-11-30T15:37:32.423Z,12.82
2022-11-30T15:40:02.345Z,12.32
2022-11-30T15:42:40.471Z,8.38
2022-11-30T15:45:11.161Z,10.07
2022-11-30T15:47:39.326Z,16.00
2022-11-30T15:50:39.867Z,5.90
2022-11-30T15:53:45.317Z,7.60
2022-11-30T15:56:26.918Z,5.07
2022-11-30T15:59:20.597Z,6.63
2022-11-30T16:02:04.845Z,12.15
2022-11-30T16:04:56.829Z,6.28
2022-11-30T16:07:48.896Z,7.95
2022-11-30T16:10:20.191Z,27.27
2022-11-30T16:12:50.429Z,54.78
2022-11-30T16:15:23.549Z,65.68
2022-11-30T16:17:51.620Z,21.73
2022-11-30T16:20:21.213Z,22.17
2022-11-30T16:22:49.167Z,17.42
2022-11-30T16:25:22.007Z,8.55
2022-11-30T16:27:49.761Z,6.38
2022-11-30T16:30:19.761Z,13.50
2022-11-30T16:32:47.390Z,8.82
2022-11-30T16:35:17.298Z,9.13
2022-11-30T16:37:44.281Z,5.93
2022-11-30T16:40:14.867Z,8.30
2022-11-30T16:42:41.785Z,6.80
2022-11-30T16:45:34.790Z,6.03
2022-11-30T16:48:01.865Z,5.68
2022-11-30T16:50:28.838Z,6.10
2022-11-30T16:52:55.926Z,10.93
2022-11-30T16:55:23.657Z,5.90
2022-11-30T16:57:50.948Z,5.82
2022-11-30T17:00:20.703Z,5.65
2022-11-30T17:02:59.711Z,8.38
2022-11-30T17:05:27.717Z,9.15
2022-11-30T17:07:55.718Z,20.42
2022-11-30T17:10:22.773Z,11.75
2022-11-30T17:12:49.712Z,13.43
2022-11-30T17:15:20.282Z,9.60
2022-11-30T17:17:47.510Z,9.75
2022-11-30T17:20:16.008Z,7.85
2022-11-30T17:22:44.356Z,5.40
2022-11-30T17:25:19.276Z,8.63
2022-11-30T17:27:47.039Z,11.15
2022-11-30T17:30:17.687Z,3.60
2022-11-30T17:32:45.001Z,3.97
2022-11-30T17:35:12.493Z,6.82
2022-11-30T17:37:39.679Z,5.00
2022-11-30T17:40:08.534Z,31.60
2022-11-30T17:42:35.426Z,12.38
2022-11-30T17:45:02.375Z,22.50
2022-11-30T17:47:29.352Z,15.68
2022-11-30T17:49:57.238Z,9.20
2022-11-30T17:52:24.163Z,10.60
2022-11-30T17:54:51.195Z,20.88
2022-11-30T17:57:18.146Z,19.50
2022-11-30T17:59:45.098Z,13.48
2022-11-30T18:02:12.456Z,9.20
2022-11-30T18:04:39.925Z,12.25
2022-11-30T18:07:06.877Z,13.00
2022-11-30T18:09:39.251Z,8.77
2022-11-30T18:12:07.920Z,13.30
2022-11-30T18:14:34.913Z,9.43
2022-11-30T18:17:01.916Z,7.78
2022-11-30T18:19:28.983Z,7.05
2022-11-30T18:21:56.809Z,6.95
2022-11-30T18:24:25.467Z,9.00
2022-11-30T18:26:53.215Z,6.75
2022-11-30T18:29:20.234Z,11.65
2022-11-30T18:31:48.576Z,14.40
2022-11-30T18:34:15.861Z,6.97
2022-11-30T18:36:43.062Z,8.43
2022-11-30T18:39:10.090Z,6.57
2022-11-30T18:41:37.191Z,6.20
2022-11-30T18:44:04.942Z,5.13
2022-11-30T18:46:32.204Z,6.30
2022-11-30T18:48:59.661Z,7.97
2022-11-30T18:51:29.240Z,11.52
2022-11-30T18:54:01.968Z,14.70
2022-11-30T18:56:31.143Z,6.03
2022-11-30T18:59:00.522Z,12.93
2022-11-30T19:01:28.701Z,6.22
2022-11-30T19:03:57.971Z,7.78
2022-11-30T19:06:28.392Z,5.78
2022-11-30T19:08:55.982Z,18.08
2022-11-30T19:11:23.034Z,10.52
2022-11-30T19:13:57.903Z,14.07
2022-11-30T19:16:26.434Z,9.30
2022-11-30T19:18:54.289Z,18.48
2022-11-30T19:21:22.982Z,8.35
2022-11-30T19:23:50.549Z,12.23
2022-11-30T19:26:17.687Z,10.27
2022-11-30T19:28:45.582Z,8.15
2022-11-30T19:31:17.644Z,11.77
2022-11-30T19:33:47.407Z,8.90
2022-11-30T19:36:20.346Z,15.50
2022-11-30T19:38:47.713Z,9.43
2022-11-30T19:41:15.678Z,9.05
2022-11-30T19:43:47.789Z,10.40
2022-11-30T19:46:18.259Z,7.95
2022-11-30T19:48:45.245Z,8.45
2022-11-30T19:51:18.093Z,8.95
2022-11-30T19:53:45.971Z,13.77
2022-11-30T19:56:17.717Z,5.88
2022-11-30T19:58:46.211Z,10.63
2022-11-30T20:01:19.532Z,9.45
2022-11-30T20:03:46.545Z,6.82
2022-11-30T20:06:13.590Z,12.60
2022-11-30T20:08:41.061Z,7.78
2022-11-30T20:11:09.283Z,8.45
2022-11-30T20:13:36.885Z,13.02
2022-11-30T20:16:15.235Z,10.95
2022-11-30T20:18:46.543Z,11.10
2022-11-30T20:21:18.909Z,6.65
2022-11-30T20:23:48.198Z,6.20
2022-11-30T20:26:19.290Z,5.28
2022-11-30T20:28:47.290Z,6.13
2022-11-30T20:31:15.414Z,6.10
2022-11-30T20:33:42.638Z,5.22
2022-11-30T20:36:11.040Z,7.68
2022-11-30T20:38:38.134Z,3.80
2022-11-30T20:41:08.056Z,6.47
2022-11-30T20:43:35.263Z,7.95
2022-11-30T20:46:02.205Z,11.90
2022-11-30T20:48:29.182Z,14.00
2022-11-30T20:51:28.454Z,5.38
2022-11-30T20:53:43.212Z,3.80
2022-11-30T20:56:10.637Z,5.80
2022-11-30T20:58:37.820Z,4.20
2022-11-30T21:01:15.807Z,5.35
2022-11-30T21:03:42.983Z,8.15
2022-11-30T21:06:10.887Z,6.32
2022-11-30T21:08:39.389Z,8.07
2022-11-30T21:11:18.329Z,7.55
2022-11-30T21:13:46.939Z,4.85
2022-11-30T21:16:15.819Z,6.03
2022-11-30T21:18:45.914Z,4.07
2022-11-30T21:21:21.462Z,12.65
2022-11-30T21:23:49.528Z,5.57
2022-11-30T21:26:22.226Z,19.27
2022-11-30T21:28:53.775Z,17.98
2022-11-30T21:31:21.810Z,6.65
2022-11-30T21:33:53.189Z,11.65
2022-11-30T21:36:21.972Z,11.05
2022-11-30T21:38:53.414Z,9.82
2022-11-30T21:41:20.548Z,8.73
2022-11-30T21:43:47.582Z,4.93
2022-11-30T21:46:32.995Z,4.10
2022-11-30T21:49:00.150Z,4.40
2022-11-30T21:51:34.454Z,3.65
2022-11-30T21:54:06.830Z,3.65
2022-11-30T21:56:52.953Z,7.25
2022-11-30T21:59:26.548Z,5.93
2022-11-30T22:01:54.007Z,4.72
2022-11-30T22:04:20.991Z,5.38
2022-11-30T22:09:45.160Z,5.25
2022-11-30T22:12:21.347Z,10.45
2022-11-30T22:14:48.307Z,10.48
2022-11-30T22:17:15.321Z,4.03
2022-11-30T22:19:42.264Z,6.40
2022-11-30T22:22:09.445Z,4.97
2022-11-30T22:24:36.462Z,3.58
2022-11-30T22:27:03.418Z,2.78
2022-11-30T22:29:30.399Z,11.25
2022-11-30T22:31:57.364Z,7.80
2022-11-30T22:34:24.266Z,2.83
2022-11-30T22:36:51.212Z,3.53
2022-11-30T22:40:07.470Z,2.72
2022-11-30T22:43:00.878Z,2.17
2022-11-30T22:49:26.855Z,2.08
2022-11-30T23:06:21.987Z,2.50
2022-11-30T23:12:20.318Z,2.33
2022-11-30T23:15:00.197Z,4.82
2022-11-30T23:21:07.831Z,2.33
2022-11-30T23:23:44.698Z,2.42
2022-11-30T23:37:25.398Z,4.32
2022-11-30T23:39:00.454Z,5.32
2022-11-30T23:40:46.955Z,2.97
2022-11-30T23:43:23.324Z,3.70
2022-11-30T23:53:00.325Z,4.85
2022-11-30T23:55:28.798Z,2.15
